createdAt,value
2022-11-16T00:00:31.769Z,92.15
2022-11-16T00:01:31.740Z,92.13
2022-11-16T00:02:31.796Z,92.16
2022-11-16T00:03:31.733Z,92.14
2022-11-16T00:04:31.705Z,92.13
2022-11-16T00:05:31.694Z,92.14
2022-11-16T00:06:31.675Z,92.13
2022-11-16T00:07:31.737Z,92.11
2022-11-16T00:08:32.023Z,92.13
2022-11-16T00:09:31.648Z,92.11
2022-11-16T00:10:31.645Z,92.09
2022-11-16T00:11:31.626Z,92.10
2022-11-16T00:12:31.641Z,92.10
2022-11-16T00:13:31.618Z,92.11
2022-11-16T00:14:31.596Z,92.10
2022-11-16T00:15:31.587Z,92.14
2022-11-16T00:16:31.574Z,92.20
2022-11-16T00:17:31.549Z,92.23
2022-11-16T00:18:31.954Z,92.23
2022-11-16T00:19:31.546Z,92.26
2022-11-16T00:20:31.527Z,92.29
2022-11-16T00:21:31.517Z,92.33
2022-11-16T00:22:31.518Z,92.38
2022-11-16T00:23:31.488Z,92.41
2022-11-16T00:24:31.463Z,92.43
2022-11-16T00:25:31.478Z,92.45
2022-11-16T00:26:31.449Z,92.51
2022-11-16T00:27:31.433Z,92.50
2022-11-16T00:28:31.773Z,92.50
2022-11-16T00:29:31.410Z,92.55
2022-11-16T00:30:31.403Z,92.55
2022-11-16T00:31:31.399Z,92.55
2022-11-16T00:32:31.396Z,92.55
2022-11-16T00:33:31.378Z,92.56
2022-11-16T00:34:31.357Z,92.58
2022-11-16T00:35:31.367Z,92.61
2022-11-16T00:36:31.350Z,92.59
2022-11-16T00:37:31.317Z,92.58
2022-11-16T00:38:31.699Z,92.57
2022-11-16T00:39:31.321Z,92.58
2022-11-16T00:40:31.323Z,92.55
2022-11-16T00:41:31.288Z,92.53
2022-11-16T00:42:31.270Z,92.52
2022-11-16T00:43:31.259Z,92.50
2022-11-16T00:44:31.285Z,92.50
2022-11-16T00:45:31.226Z,92.51
2022-11-16T00:46:31.271Z,92.50
2022-11-16T00:47:31.209Z,92.49
2022-11-16T00:48:31.557Z,92.51
2022-11-16T00:49:31.174Z,92.49
2022-11-16T00:50:31.164Z,92.48
2022-11-16T00:51:31.164Z,92.39
2022-11-16T00:52:31.191Z,92.35
2022-11-16T00:53:31.140Z,92.34
2022-11-16T00:54:31.122Z,92.33
2022-11-16T00:55:31.118Z,92.34
2022-11-16T00:56:31.094Z,92.35
2022-11-16T00:57:31.090Z,92.40
2022-11-16T00:58:31.531Z,92.41
2022-11-16T00:59:31.063Z,92.46
2022-11-16T01:00:31.049Z,92.46
2022-11-16T01:01:31.128Z,92.46
2022-11-16T01:02:31.034Z,92.47
2022-11-16T01:03:31.060Z,92.47
2022-11-16T01:04:31.017Z,92.50
2022-11-16T01:05:31.017Z,92.55
2022-11-16T01:06:30.986Z,92.56
2022-11-16T01:07:31.050Z,92.62
2022-11-16T01:08:31.352Z,92.61
2022-11-16T01:09:30.954Z,92.65
2022-11-16T01:10:30.947Z,92.67
2022-11-16T01:11:30.955Z,92.66
2022-11-16T01:12:30.966Z,92.67
2022-11-16T01:13:30.907Z,92.68
2022-11-16T01:14:30.942Z,92.68
2022-11-16T01:15:30.869Z,92.69
2022-11-16T01:16:30.878Z,92.69
2022-11-16T01:17:30.877Z,92.69
2022-11-16T01:18:31.137Z,92.70
2022-11-16T01:19:30.833Z,92.73
2022-11-16T01:20:30.823Z,92.74
2022-11-16T01:21:30.812Z,92.78
2022-11-16T01:22:30.804Z,92.80
2022-11-16T01:23:30.794Z,92.80
2022-11-16T01:24:30.798Z,92.81
2022-11-16T01:25:30.773Z,92.84
2022-11-16T01:26:30.754Z,92.86
2022-11-16T01:27:30.751Z,92.86
2022-11-16T01:28:30.964Z,92.87
2022-11-16T01:29:30.703Z,92.90
2022-11-16T01:30:30.694Z,92.88
2022-11-16T01:31:30.702Z,92.90
2022-11-16T01:32:30.678Z,92.91
2022-11-16T01:33:30.667Z,92.92
2022-11-16T01:34:30.653Z,92.93
2022-11-16T01:35:30.640Z,92.91
2022-11-16T01:36:30.643Z,92.91
2022-11-16T01:37:30.633Z,92.91
2022-11-16T01:38:30.610Z,92.91
2022-11-16T01:39:30.594Z,92.92
2022-11-16T01:40:30.600Z,92.92
2022-11-16T01:41:30.575Z,92.92
2022-11-16T01:42:30.558Z,92.91
2022-11-16T01:43:30.548Z,92.92
2022-11-16T01:44:30.536Z,92.92
2022-11-16T01:45:30.522Z,92.92
2022-11-16T01:46:30.508Z,92.94
2022-11-16T01:47:30.510Z,92.94
2022-11-16T01:48:30.622Z,92.95
2022-11-16T01:49:30.469Z,92.94
2022-11-16T01:50:30.479Z,92.93
2022-11-16T01:51:30.447Z,92.93
2022-11-16T01:52:30.474Z,92.93
2022-11-16T01:53:30.445Z,92.94
2022-11-16T01:54:30.425Z,92.95
2022-11-16T01:55:30.409Z,92.96
2022-11-16T01:56:30.399Z,92.95
2022-11-16T01:57:30.411Z,92.96
2022-11-16T01:58:30.510Z,92.95
2022-11-16T01:59:30.369Z,92.95
2022-11-16T02:00:30.348Z,92.94
2022-11-16T02:01:30.425Z,92.94
2022-11-16T02:02:30.347Z,92.96
2022-11-16T02:03:30.320Z,93.04
2022-11-16T02:04:30.299Z,93.06
2022-11-16T02:05:30.290Z,93.13
2022-11-16T02:06:30.286Z,93.23
2022-11-16T02:07:30.334Z,93.33
2022-11-16T02:08:30.284Z,93.33
2022-11-16T02:09:30.250Z,93.32
2022-11-16T02:10:30.230Z,93.28
2022-11-16T02:11:30.216Z,93.28
2022-11-16T02:12:30.224Z,93.30
2022-11-16T02:13:30.192Z,93.35
2022-11-16T02:14:30.189Z,93.40
2022-11-16T02:15:30.172Z,93.43
2022-11-16T02:16:30.181Z,93.46
2022-11-16T02:17:30.170Z,93.48
2022-11-16T02:18:30.304Z,93.48
2022-11-16T02:19:30.152Z,93.49
2022-11-16T02:20:30.111Z,93.49
2022-11-16T02:21:30.100Z,93.50
2022-11-16T02:22:30.081Z,93.52
2022-11-16T02:23:30.094Z,93.53
2022-11-16T02:24:30.069Z,93.51
2022-11-16T02:25:30.052Z,93.52
2022-11-16T02:26:30.062Z,93.54
2022-11-16T02:27:30.040Z,93.54
2022-11-16T02:28:30.014Z,93.53
2022-11-16T02:29:30.054Z,93.53
2022-11-16T02:30:29.993Z,93.53
2022-11-16T02:31:29.983Z,93.55
2022-11-16T02:32:29.989Z,93.53
2022-11-16T02:33:29.984Z,93.54
2022-11-16T02:34:29.946Z,93.55
2022-11-16T02:35:29.951Z,93.56
2022-11-16T02:36:29.921Z,93.55
2022-11-16T02:37:29.919Z,93.57
2022-11-16T02:38:29.901Z,93.57
2022-11-16T02:39:29.904Z,93.55
2022-11-16T02:40:29.896Z,93.55
2022-11-16T02:41:29.876Z,93.56
2022-11-16T02:42:29.855Z,93.57
2022-11-16T02:43:29.851Z,93.59
2022-11-16T02:44:29.845Z,93.60
2022-11-16T02:45:29.859Z,93.63
2022-11-16T02:46:29.824Z,93.63
2022-11-16T02:47:29.841Z,93.63
2022-11-16T02:48:29.830Z,93.62
2022-11-16T02:49:29.782Z,93.63
2022-11-16T02:50:29.767Z,93.65
2022-11-16T02:51:29.776Z,93.65
2022-11-16T02:52:29.754Z,93.64
2022-11-16T02:53:29.729Z,93.65
2022-11-16T02:54:29.721Z,93.65
2022-11-16T02:55:29.728Z,93.64
2022-11-16T02:56:29.707Z,93.64
2022-11-16T02:57:29.682Z,93.67
2022-11-16T02:58:29.671Z,93.65
2022-11-16T02:59:29.674Z,93.68
2022-11-16T03:00:29.651Z,93.71
2022-11-16T03:01:29.718Z,93.70
2022-11-16T03:02:29.640Z,93.71
2022-11-16T03:03:29.635Z,93.71
2022-11-16T03:04:29.599Z,93.72
2022-11-16T03:05:29.601Z,93.73
2022-11-16T03:06:29.592Z,93.73
2022-11-16T03:07:29.614Z,93.72
2022-11-16T03:08:29.658Z,93.73
2022-11-16T03:09:29.547Z,93.72
2022-11-16T03:10:29.519Z,93.74
2022-11-16T03:11:29.542Z,93.76
2022-11-16T03:12:29.507Z,93.77
2022-11-16T03:13:29.494Z,93.76
2022-11-16T03:14:29.473Z,93.79
2022-11-16T03:15:29.474Z,93.79
2022-11-16T03:16:29.461Z,93.80
2022-11-16T03:17:29.459Z,93.81
2022-11-16T03:18:29.423Z,93.82
2022-11-16T03:19:29.435Z,93.83
2022-11-16T03:20:29.406Z,93.82
2022-11-16T03:21:29.423Z,93.83
2022-11-16T03:22:29.406Z,93.84
2022-11-16T03:23:29.373Z,93.82
2022-11-16T03:24:29.365Z,93.81
2022-11-16T03:25:29.368Z,93.81
2022-11-16T03:26:29.344Z,93.80
2022-11-16T03:27:29.352Z,93.79
2022-11-16T03:28:29.316Z,93.78
2022-11-16T03:29:29.309Z,93.78
2022-11-16T03:30:29.301Z,93.75
2022-11-16T03:31:29.307Z,93.72
2022-11-16T03:32:29.270Z,93.70
2022-11-16T03:33:29.280Z,93.70
2022-11-16T03:34:29.246Z,93.68
2022-11-16T03:35:29.248Z,93.68
2022-11-16T03:36:29.235Z,93.68
2022-11-16T03:37:29.215Z,93.64
2022-11-16T03:38:29.226Z,93.62
2022-11-16T03:39:29.196Z,93.61
2022-11-16T03:40:29.236Z,93.59
2022-11-16T03:41:29.187Z,93.60
2022-11-16T03:42:29.149Z,93.59
2022-11-16T03:43:29.181Z,93.57
2022-11-16T03:44:29.127Z,93.55
2022-11-16T03:45:29.128Z,93.55
2022-11-16T03:46:29.116Z,93.54
2022-11-16T03:47:29.097Z,93.51
2022-11-16T03:48:29.112Z,93.50
2022-11-16T03:49:29.067Z,93.50
2022-11-16T03:50:29.060Z,93.48
2022-11-16T03:51:29.048Z,93.48
2022-11-16T03:52:29.038Z,93.48
2022-11-16T03:53:29.058Z,93.49
2022-11-16T03:54:29.033Z,93.48
2022-11-16T03:55:29.000Z,93.48
2022-11-16T03:56:28.994Z,93.45
2022-11-16T03:57:28.983Z,93.44
2022-11-16T03:58:28.970Z,93.45
2022-11-16T03:59:28.982Z,93.45
2022-11-16T04:00:28.993Z,93.45
2022-11-16T04:01:29.050Z,93.44
2022-11-16T04:02:28.923Z,93.45
2022-11-16T04:03:28.910Z,93.42
2022-11-16T04:04:28.915Z,93.42
2022-11-16T04:05:28.918Z,93.43
2022-11-16T04:06:28.868Z,93.42
2022-11-16T04:07:28.957Z,93.42
2022-11-16T04:08:28.878Z,93.42
2022-11-16T04:09:28.847Z,93.42
2022-11-16T04:10:28.852Z,93.43
2022-11-16T04:11:28.833Z,93.43
2022-11-16T04:12:28.801Z,93.43
2022-11-16T04:13:28.796Z,93.43
2022-11-16T04:14:28.771Z,93.43
2022-11-16T04:15:28.788Z,93.45
2022-11-16T04:16:28.759Z,93.47
2022-11-16T04:17:28.769Z,93.51
2022-11-16T04:18:28.736Z,93.53
2022-11-16T04:19:28.730Z,93.53
2022-11-16T04:20:28.729Z,93.55
2022-11-16T04:21:28.697Z,93.56
2022-11-16T04:22:28.733Z,93.59
2022-11-16T04:23:28.690Z,93.59
2022-11-16T04:24:28.663Z,93.61
2022-11-16T04:25:28.679Z,93.61
2022-11-16T04:26:28.661Z,93.60
2022-11-16T04:27:28.631Z,93.61
2022-11-16T04:28:28.637Z,93.65
2022-11-16T04:29:28.609Z,93.70
2022-11-16T04:30:28.591Z,93.78
2022-11-16T04:31:28.586Z,93.79
2022-11-16T04:32:28.573Z,93.84
2022-11-16T04:33:28.592Z,93.89
2022-11-16T04:34:28.543Z,93.88
2022-11-16T04:35:28.544Z,93.93
2022-11-16T04:36:28.538Z,93.95
2022-11-16T04:37:28.520Z,93.97
2022-11-16T04:38:28.502Z,93.97
2022-11-16T04:39:28.512Z,93.96
2022-11-16T04:40:28.475Z,93.96
2022-11-16T04:41:28.469Z,93.97
2022-11-16T04:42:28.464Z,93.97
2022-11-16T04:43:28.459Z,93.97
2022-11-16T04:44:30.031Z,93.99
2022-11-16T04:45:28.421Z,94.00
2022-11-16T04:46:28.434Z,94.02
2022-11-16T04:47:28.398Z,94.03
2022-11-16T04:48:28.390Z,94.08
2022-11-16T04:49:28.429Z,94.10
2022-11-16T04:50:28.366Z,94.12
2022-11-16T04:51:28.352Z,94.16
2022-11-16T04:52:28.345Z,94.18
2022-11-16T04:53:28.342Z,94.19
2022-11-16T04:54:28.308Z,94.17
2022-11-16T04:55:28.319Z,94.17
2022-11-16T04:56:28.317Z,94.17
2022-11-16T04:57:28.282Z,94.15
2022-11-16T04:58:28.273Z,94.16
2022-11-16T04:59:28.273Z,94.13
2022-11-16T05:00:28.269Z,94.12
2022-11-16T05:01:28.274Z,94.12
2022-11-16T05:02:28.246Z,94.12
2022-11-16T05:03:28.207Z,94.10
2022-11-16T05:04:28.199Z,94.11
2022-11-16T05:05:28.197Z,94.05
2022-11-16T05:06:28.205Z,94.04
2022-11-16T05:07:28.183Z,94.02
2022-11-16T05:08:28.153Z,94.01
2022-11-16T05:09:28.134Z,94.00
2022-11-16T05:10:28.130Z,93.98
2022-11-16T05:11:28.118Z,93.96
2022-11-16T05:12:28.155Z,93.95
2022-11-16T05:13:28.087Z,93.95
2022-11-16T05:14:28.077Z,93.98
2022-11-16T05:15:28.077Z,93.97
2022-11-16T05:16:28.083Z,93.99
2022-11-16T05:17:28.075Z,94.00
2022-11-16T05:18:28.051Z,94.00
2022-11-16T05:19:28.025Z,94.00
2022-11-16T05:20:28.021Z,94.00
2022-11-16T05:21:28.003Z,94.00
2022-11-16T05:22:28.027Z,93.99
2022-11-16T05:23:27.985Z,94.00
2022-11-16T05:24:27.962Z,93.98
2022-11-16T05:25:31.256Z,93.96
2022-11-16T05:26:28.954Z,93.95
2022-11-16T05:27:27.942Z,93.94
2022-11-16T05:28:27.950Z,93.91
2022-11-16T05:29:27.922Z,93.91
2022-11-16T05:30:27.894Z,93.86
2022-11-16T05:31:27.887Z,93.83
2022-11-16T05:32:27.873Z,93.80
2022-11-16T05:33:27.882Z,93.74
2022-11-16T05:34:27.848Z,93.73
2022-11-16T05:35:27.834Z,93.70
2022-11-16T05:36:27.828Z,93.70
2022-11-16T05:37:27.818Z,93.67
2022-11-16T05:38:27.822Z,93.63
2022-11-16T05:39:27.792Z,93.61
2022-11-16T05:40:27.791Z,93.60
2022-11-16T05:41:27.766Z,93.56
2022-11-16T05:42:27.760Z,93.54
2022-11-16T05:43:27.768Z,93.53
2022-11-16T05:44:27.743Z,93.49
2022-11-16T05:45:27.726Z,93.49
2022-11-16T05:46:27.707Z,93.49
2022-11-16T05:47:27.700Z,93.47
2022-11-16T05:48:27.723Z,93.43
2022-11-16T05:49:27.684Z,93.42
2022-11-16T05:50:27.656Z,93.39
2022-11-16T05:51:27.668Z,93.35
2022-11-16T05:52:27.636Z,93.33
2022-11-16T05:53:27.659Z,93.34
2022-11-16T05:54:27.646Z,93.26
2022-11-16T05:55:27.620Z,93.25
2022-11-16T05:56:27.669Z,93.23
2022-11-16T05:57:27.583Z,93.24
2022-11-16T05:58:27.604Z,93.23
2022-11-16T05:59:27.560Z,93.21
2022-11-16T06:00:27.543Z,93.21
2022-11-16T06:01:27.560Z,93.17
2022-11-16T06:02:27.517Z,93.14
2022-11-16T06:03:27.581Z,93.16
2022-11-16T06:04:27.521Z,93.17
2022-11-16T06:05:27.492Z,93.15
2022-11-16T06:06:27.466Z,93.14
2022-11-16T06:07:27.582Z,93.16
2022-11-16T06:08:27.451Z,93.10
2022-11-16T06:09:27.447Z,93.06
2022-11-16T06:10:27.424Z,92.98
2022-11-16T06:11:31.378Z,92.97
2022-11-16T06:12:28.403Z,92.94
2022-11-16T06:13:27.402Z,92.95
2022-11-16T06:14:27.399Z,92.91
2022-11-16T06:15:27.376Z,92.89
2022-11-16T06:16:27.349Z,92.90
2022-11-16T06:17:27.372Z,92.89
2022-11-16T06:18:27.349Z,92.86
2022-11-16T06:19:32.167Z,92.87
2022-11-16T06:20:28.309Z,92.86
2022-11-16T06:21:27.299Z,92.86
2022-11-16T06:22:27.298Z,92.85
2022-11-16T06:23:27.293Z,92.85
2022-11-16T06:24:27.283Z,92.87
2022-11-16T06:25:27.252Z,92.89
2022-11-16T06:26:27.236Z,92.90
2022-11-16T06:27:27.235Z,92.89
2022-11-16T06:28:27.236Z,92.89
2022-11-16T06:29:27.203Z,92.82
2022-11-16T06:30:27.250Z,92.86
2022-11-16T06:31:27.210Z,92.85
2022-11-16T06:32:27.171Z,92.80
2022-11-16T06:33:30.912Z,92.82
2022-11-16T06:34:28.137Z,92.79
2022-11-16T06:35:27.124Z,92.73
2022-11-16T06:36:27.124Z,92.71
2022-11-16T06:37:27.124Z,92.68
2022-11-16T06:38:27.136Z,92.70
2022-11-16T06:39:27.077Z,92.75
2022-11-16T06:40:27.084Z,92.79
2022-11-16T06:41:27.054Z,92.81
2022-11-16T06:42:27.057Z,92.83
2022-11-16T06:43:27.070Z,92.78
2022-11-16T06:44:27.026Z,92.72
2022-11-16T06:45:27.012Z,92.69
2022-11-16T06:46:27.004Z,92.69
2022-11-16T06:47:26.988Z,92.64
2022-11-16T06:48:26.995Z,92.58
2022-11-16T06:49:26.961Z,92.58
2022-11-16T06:50:26.979Z,92.62
2022-11-16T06:51:26.941Z,92.58
2022-11-16T06:52:26.937Z,92.58
2022-11-16T06:53:29.360Z,92.57
2022-11-16T06:54:26.908Z,92.58
2022-11-16T06:55:26.907Z,92.54
2022-11-16T06:56:26.903Z,92.52
2022-11-16T06:57:26.890Z,92.50
2022-11-16T06:58:26.889Z,92.48
2022-11-16T06:59:26.861Z,92.41
2022-11-16T07:00:26.850Z,92.34
2022-11-16T07:01:26.882Z,92.36
2022-11-16T07:02:26.818Z,92.33
2022-11-16T07:03:26.829Z,92.36
2022-11-16T07:04:26.804Z,92.34
2022-11-16T07:05:26.787Z,92.34
2022-11-16T07:06:26.801Z,92.37
2022-11-16T07:07:26.775Z,92.39
2022-11-16T07:08:26.758Z,92.50
2022-11-16T07:09:26.760Z,92.54
2022-11-16T07:10:26.735Z,92.54
2022-11-16T07:11:26.710Z,92.51
2022-11-16T07:12:26.711Z,92.48
2022-11-16T07:13:26.691Z,92.54
2022-11-16T07:14:26.708Z,92.57
2022-11-16T07:15:26.666Z,92.54
2022-11-16T07:16:26.671Z,92.47
2022-11-16T07:17:26.643Z,92.47
2022-11-16T07:18:26.669Z,92.41
2022-11-16T07:19:26.656Z,92.40
2022-11-16T07:20:26.630Z,92.49
2022-11-16T07:21:26.597Z,92.50
2022-11-16T07:22:26.589Z,92.47
2022-11-16T07:23:26.582Z,92.46
2022-11-16T07:24:26.574Z,92.43
2022-11-16T07:25:26.567Z,92.43
2022-11-16T07:26:26.538Z,92.37
2022-11-16T07:27:26.545Z,92.31
2022-11-16T07:28:26.524Z,92.15
2022-11-16T07:29:26.534Z,92.03
2022-11-16T07:30:26.548Z,91.94
2022-11-16T07:31:26.494Z,91.81
2022-11-16T07:32:26.471Z,91.65
2022-11-16T07:33:26.460Z,91.30
2022-11-16T07:34:26.446Z,90.97
2022-11-16T07:35:26.445Z,90.49
2022-11-16T07:36:26.430Z,90.29
2022-11-16T07:37:26.414Z,90.32
2022-11-16T07:38:26.400Z,90.41
2022-11-16T07:39:26.412Z,90.38
2022-11-16T07:40:26.382Z,89.85
2022-11-16T07:41:26.395Z,90.04
2022-11-16T07:42:26.370Z,90.10
2022-11-16T07:43:26.357Z,89.65
2022-11-16T07:44:26.327Z,89.68
2022-11-16T07:45:26.341Z,89.65
2022-11-16T07:47:27.277Z,89.18
2022-11-16T07:48:26.321Z,88.58
2022-11-16T07:49:26.277Z,88.04
2022-11-16T07:50:26.266Z,87.76
2022-11-16T07:51:26.269Z,87.67
2022-11-16T07:52:26.262Z,87.56
2022-11-16T07:53:26.263Z,87.49
2022-11-16T07:54:26.241Z,87.54
2022-11-16T07:55:26.258Z,87.36
2022-11-16T07:56:26.189Z,87.22
2022-11-16T07:57:26.204Z,87.25
2022-11-16T07:58:26.180Z,86.98
2022-11-16T07:59:26.163Z,86.53
2022-11-16T08:00:26.154Z,85.87
2022-11-16T08:01:26.179Z,85.47
2022-11-16T08:02:26.126Z,85.01
2022-11-16T08:03:26.178Z,84.09
2022-11-16T08:04:26.103Z,83.91
2022-11-16T08:05:26.127Z,83.58
2022-11-16T08:06:26.105Z,82.08
2022-11-16T08:07:26.086Z,81.80
2022-11-16T08:08:26.093Z,80.60
2022-11-16T08:09:26.056Z,80.35
2022-11-16T08:10:26.064Z,79.21
2022-11-16T08:11:26.019Z,78.48
2022-11-16T08:12:26.025Z,78.05
2022-11-16T08:13:26.017Z,78.19
2022-11-16T08:14:25.980Z,77.78
2022-11-16T08:15:25.983Z,77.81
2022-11-16T08:16:25.982Z,76.94
2022-11-16T08:17:25.951Z,76.32
2022-11-16T08:18:25.979Z,75.57
2022-11-16T08:19:25.942Z,75.26
2022-11-16T08:20:25.902Z,75.01
2022-11-16T08:21:25.886Z,74.18
2022-11-16T08:22:25.887Z,74.49
2022-11-16T08:23:25.876Z,74.87
2022-11-16T08:24:25.907Z,75.24
2022-11-16T08:25:25.881Z,75.82
2022-11-16T08:26:25.845Z,76.60
2022-11-16T08:27:25.828Z,77.05
2022-11-16T08:28:25.824Z,77.05
2022-11-16T08:29:25.813Z,76.95
2022-11-16T08:30:25.817Z,77.30
2022-11-16T08:31:25.778Z,77.41
2022-11-16T08:32:25.781Z,77.55
2022-11-16T08:33:25.758Z,78.16
2022-11-16T08:34:25.757Z,78.59
2022-11-16T08:35:25.794Z,79.05
2022-11-16T08:36:25.717Z,79.66
2022-11-16T08:37:25.732Z,80.27
2022-11-16T08:38:25.697Z,80.70
2022-11-16T08:39:25.698Z,80.72
2022-11-16T08:40:25.678Z,80.86
2022-11-16T08:41:25.677Z,81.26
2022-11-16T08:42:25.660Z,81.60
2022-11-16T08:43:25.645Z,81.12
2022-11-16T08:44:25.648Z,81.05
2022-11-16T08:45:25.620Z,81.27
2022-11-16T08:46:25.619Z,81.56
2022-11-16T08:47:25.610Z,81.96
2022-11-16T08:48:25.581Z,82.27
2022-11-16T08:49:25.568Z,82.40
2022-11-16T08:50:25.620Z,82.62
2022-11-16T08:51:25.553Z,82.84
2022-11-16T08:52:25.542Z,83.29
2022-11-16T08:53:25.516Z,83.54
2022-11-16T08:54:25.509Z,83.70
2022-11-16T08:55:25.498Z,83.11
2022-11-16T08:56:25.500Z,83.13
2022-11-16T08:57:25.492Z,83.35
2022-11-16T08:58:25.462Z,82.96
2022-11-16T08:59:25.454Z,82.63
2022-11-16T09:00:25.461Z,82.75
2022-11-16T09:01:25.492Z,82.84
2022-11-16T09:02:25.602Z,83.02
2022-11-16T09:03:25.424Z,83.08
2022-11-16T09:04:25.412Z,82.85
2022-11-16T09:05:25.381Z,83.27
2022-11-16T09:06:25.404Z,83.50
2022-11-16T09:07:25.447Z,83.53
2022-11-16T09:08:25.363Z,83.85
2022-11-16T09:09:25.348Z,83.83
2022-11-16T09:10:25.355Z,83.68
2022-11-16T09:11:25.323Z,83.52
2022-11-16T09:12:25.304Z,83.66
2022-11-16T09:13:25.288Z,83.65
2022-11-16T09:14:25.277Z,84.00
2022-11-16T09:15:25.258Z,84.00
2022-11-16T09:16:25.267Z,84.22
2022-11-16T09:17:25.241Z,84.58
2022-11-16T09:18:25.228Z,84.35
2022-11-16T09:19:25.235Z,84.22
2022-11-16T09:20:25.235Z,84.49
2022-11-16T09:21:25.232Z,84.57
2022-11-16T09:22:25.197Z,84.43
2022-11-16T09:23:25.847Z,84.33
2022-11-16T09:24:25.172Z,84.01
2022-11-16T09:25:25.155Z,84.01
2022-11-16T09:26:25.188Z,84.23
2022-11-16T09:27:25.123Z,84.44
2022-11-16T09:28:25.127Z,84.67
2022-11-16T09:29:25.098Z,84.93
2022-11-16T09:30:25.086Z,84.80
2022-11-16T09:31:25.110Z,84.69
2022-11-16T09:32:25.071Z,84.24
2022-11-16T09:33:25.047Z,84.02
2022-11-16T09:34:25.046Z,83.96
2022-11-16T09:35:25.032Z,83.63
2022-11-16T09:36:25.054Z,83.68
2022-11-16T09:37:25.026Z,83.23
2022-11-16T09:38:40.295Z,83.36
2022-11-16T09:39:31.210Z,83.22
2022-11-16T09:40:25.975Z,83.49
2022-11-16T09:41:24.972Z,84.16
2022-11-16T09:42:24.974Z,83.67
2022-11-16T09:43:24.934Z,83.68
2022-11-16T09:44:24.938Z,83.79
2022-11-16T09:45:24.923Z,84.10
2022-11-16T09:46:24.915Z,82.96
2022-11-16T09:47:24.919Z,82.64
2022-11-16T09:48:24.902Z,82.78
2022-11-16T09:49:24.904Z,82.91
2022-11-16T09:50:24.865Z,82.77
2022-11-16T09:51:24.850Z,82.46
2022-11-16T09:52:24.869Z,82.36
2022-11-16T09:53:24.852Z,82.56
2022-11-16T09:54:24.811Z,83.03
2022-11-16T09:55:24.830Z,82.55
2022-11-16T09:56:24.791Z,81.84
2022-11-16T09:57:24.776Z,81.50
2022-11-16T09:58:24.798Z,80.80
2022-11-16T09:59:24.799Z,80.48
2022-11-16T10:00:24.911Z,80.51
2022-11-16T10:01:24.789Z,81.57
2022-11-16T10:02:24.726Z,81.29
2022-11-16T10:03:24.726Z,81.34
2022-11-16T10:04:24.709Z,81.07
2022-11-16T10:05:24.703Z,80.79
2022-11-16T10:06:24.682Z,80.61
2022-11-16T10:07:24.737Z,81.37
2022-11-16T10:08:24.681Z,81.54
2022-11-16T10:09:24.944Z,80.88
2022-11-16T10:10:24.694Z,80.99
2022-11-16T10:11:24.608Z,80.86
2022-11-16T10:12:24.650Z,80.82
2022-11-16T10:13:24.588Z,80.83
2022-11-16T10:14:24.600Z,81.16
2022-11-16T10:15:24.580Z,80.84
2022-11-16T10:16:24.571Z,81.16
2022-11-16T10:17:24.550Z,81.48
2022-11-16T10:18:24.524Z,82.11
2022-11-16T10:19:24.517Z,82.51
2022-11-16T10:20:30.176Z,82.18
2022-11-16T10:21:25.497Z,81.49
2022-11-16T10:22:24.582Z,81.22
2022-11-16T10:23:24.481Z,80.99
2022-11-16T10:24:24.464Z,80.93
2022-11-16T10:25:24.484Z,81.14
2022-11-16T10:26:24.444Z,81.00
2022-11-16T10:27:24.440Z,81.28
2022-11-16T10:28:24.426Z,80.99
2022-11-16T10:29:24.403Z,80.90
2022-11-16T10:30:24.405Z,80.62
2022-11-16T10:31:24.396Z,80.46
2022-11-16T10:32:24.377Z,80.42
2022-11-16T10:33:24.359Z,80.26
2022-11-16T10:34:24.364Z,80.63
2022-11-16T10:35:24.330Z,80.61
2022-11-16T10:36:24.341Z,80.71
2022-11-16T10:37:24.321Z,80.64
2022-11-16T10:38:24.315Z,80.26
2022-11-16T10:39:24.293Z,80.33
2022-11-16T10:40:24.274Z,80.31
2022-11-16T10:41:24.298Z,80.26
2022-11-16T10:42:24.253Z,80.00
2022-11-16T10:43:24.245Z,79.18
2022-11-16T10:44:24.242Z,79.86
2022-11-16T10:45:24.224Z,79.16
2022-11-16T10:46:24.202Z,78.34
2022-11-16T10:47:27.051Z,78.79
2022-11-16T10:48:25.181Z,78.74
2022-11-16T10:49:24.182Z,77.78
2022-11-16T10:50:24.167Z,77.50
2022-11-16T10:51:24.182Z,77.42
2022-11-16T10:52:24.145Z,77.04
2022-11-16T10:53:24.123Z,76.48
2022-11-16T10:54:24.133Z,75.79
2022-11-16T10:55:24.099Z,75.78
2022-11-16T10:56:24.113Z,75.94
2022-11-16T10:57:24.080Z,76.20
2022-11-16T10:58:24.058Z,75.79
2022-11-16T10:59:24.054Z,74.61
2022-11-16T11:00:24.055Z,75.06
2022-11-16T11:01:24.128Z,75.18
2022-11-16T11:02:24.032Z,74.84
2022-11-16T11:03:24.014Z,74.57
2022-11-16T11:04:23.999Z,74.96
2022-11-16T11:05:23.987Z,75.30
2022-11-16T11:06:23.970Z,75.30
2022-11-16T11:07:24.057Z,75.64
2022-11-16T11:08:23.972Z,75.51
2022-11-16T11:09:23.947Z,75.73
2022-11-16T11:10:24.030Z,75.62
2022-11-16T11:11:23.926Z,74.83
2022-11-16T11:12:23.938Z,74.65
2022-11-16T11:13:23.909Z,73.72
2022-11-16T11:14:23.896Z,73.94
2022-11-16T11:15:26.226Z,74.81
2022-11-16T11:16:23.881Z,74.38
2022-11-16T11:17:23.871Z,74.99
2022-11-16T11:18:23.841Z,75.03
2022-11-16T11:19:23.876Z,75.13
2022-11-16T11:20:23.817Z,74.35
2022-11-16T11:21:23.817Z,74.49
2022-11-16T11:22:23.819Z,74.55
2022-11-16T11:23:23.777Z,74.89
2022-11-16T11:25:24.761Z,74.41
2022-11-16T11:26:23.742Z,74.70
2022-11-16T11:27:23.743Z,74.81
2022-11-16T11:28:23.732Z,74.79
2022-11-16T11:29:23.739Z,73.35
2022-11-16T11:30:23.734Z,72.30
2022-11-16T11:31:23.705Z,73.34
2022-11-16T11:32:24.720Z,73.38
2022-11-16T11:33:23.682Z,73.48
2022-11-16T11:34:23.672Z,73.37
2022-11-16T11:35:23.650Z,72.77
2022-11-16T11:36:23.624Z,72.84
2022-11-16T11:37:23.608Z,72.10
2022-11-16T11:38:23.597Z,72.39
2022-11-16T11:39:23.658Z,72.77
2022-11-16T11:40:23.613Z,73.95
2022-11-16T11:41:23.577Z,73.36
2022-11-16T11:42:23.556Z,72.97
2022-11-16T11:43:23.570Z,72.67
2022-11-16T11:44:23.648Z,72.22
2022-11-16T11:45:23.544Z,71.89
2022-11-16T11:46:23.516Z,72.01
2022-11-16T11:48:24.483Z,72.60
2022-11-16T11:49:23.461Z,72.94
2022-11-16T11:50:23.471Z,72.30
2022-11-16T11:51:23.437Z,71.88
2022-11-16T11:52:23.449Z,71.04
2022-11-16T11:53:23.452Z,71.28
2022-11-16T11:54:23.410Z,71.25
2022-11-16T11:55:23.406Z,71.87
2022-11-16T11:56:23.430Z,71.92
2022-11-16T11:57:23.452Z,71.71
2022-11-16T11:58:23.364Z,72.04
2022-11-16T11:59:23.349Z,72.67
2022-11-16T12:00:23.343Z,72.23
2022-11-16T12:01:25.616Z,71.62
2022-11-16T12:02:23.320Z,71.67
2022-11-16T12:03:23.354Z,72.54
2022-11-16T12:04:23.291Z,71.36
2022-11-16T12:05:23.291Z,71.63
2022-11-16T12:06:23.287Z,71.81
2022-11-16T12:07:23.359Z,71.52
2022-11-16T12:08:23.249Z,71.70
2022-11-16T12:09:23.244Z,71.53
2022-11-16T12:10:23.213Z,71.38
2022-11-16T12:11:23.244Z,71.53
2022-11-16T12:12:23.209Z,71.85
2022-11-16T12:13:23.188Z,72.05
2022-11-16T12:14:23.171Z,72.34
2022-11-16T12:15:23.161Z,72.65
2022-11-16T12:16:23.154Z,72.32
2022-11-16T12:17:23.160Z,72.56
2022-11-16T12:18:23.130Z,72.94
2022-11-16T12:19:23.146Z,72.76
2022-11-16T12:20:23.107Z,72.94
2022-11-16T12:21:23.093Z,72.68
2022-11-16T12:22:23.114Z,72.76
2022-11-16T12:23:23.081Z,72.45
2022-11-16T12:24:23.042Z,72.97
2022-11-16T12:25:23.046Z,73.84
2022-11-16T12:26:23.027Z,73.63
2022-11-16T12:27:23.065Z,73.62
2022-11-16T12:28:23.033Z,73.23
2022-11-16T12:29:23.026Z,73.90
2022-11-16T12:30:22.984Z,74.29
2022-11-16T12:31:22.972Z,74.37
2022-11-16T12:32:22.978Z,74.90
2022-11-16T12:33:22.994Z,75.07
2022-11-16T12:34:22.927Z,75.49
2022-11-16T12:35:22.935Z,74.96
2022-11-16T12:36:22.910Z,74.93
2022-11-16T12:37:22.948Z,74.77
2022-11-16T12:38:26.221Z,75.03
2022-11-16T12:39:22.894Z,74.93
2022-11-16T12:40:22.868Z,74.84
2022-11-16T12:41:22.855Z,74.70
2022-11-16T12:42:22.863Z,74.55
2022-11-16T12:43:22.825Z,75.05
2022-11-16T12:44:22.815Z,74.76
2022-11-16T12:45:25.351Z,75.20
2022-11-16T12:46:23.817Z,75.29
2022-11-16T12:47:22.870Z,75.29
2022-11-16T12:48:22.777Z,75.42
2022-11-16T12:49:22.782Z,75.86
2022-11-16T12:50:22.751Z,76.28
2022-11-16T12:51:25.272Z,76.33
2022-11-16T12:52:23.733Z,76.40
2022-11-16T12:53:22.718Z,76.50
2022-11-16T12:54:22.703Z,76.41
2022-11-16T12:55:27.333Z,76.38